sensor_id;sensor_type;location;lat;lon;timestamp;P1;durP1;ratioP1;P2;durP2;ratioP2
49183;SDS011;35021;49.214;12.270;2023-03-16T00:01:07;3.15;;;2.60;;
49183;SDS011;35021;49.214;12.270;2023-03-16T00:03:34;3.40;;;2.63;;
49183;SDS011;35021;49.214;12.270;2023-03-16T00:06:02;3.95;;;3.20;;
49183;SDS011;35021;49.214;12.270;2023-03-16T00:08:29;3.35;;;2.83;;
49183;SDS011;35021;49.214;12.270;2023-03-16T00:10:56;3.10;;;2.80;;
49183;SDS011;35021;49.214;12.270;2023-03-16T00:13:23;4.00;;;2.90;;
49183;SDS011;35021;49.214;12.270;2023-03-16T00:15:51;3.65;;;2.80;;
49183;SDS011;35021;49.214;12.270;2023-03-16T00:18:20;3.10;;;2.67;;
49183;SDS011;35021;49.214;12.270;2023-03-16T00:20:49;4.25;;;3.20;;
49183;SDS011;35021;49.214;12.270;2023-03-16T00:23:17;3.80;;;3.15;;
49183;SDS011;35021;49.214;12.270;2023-03-16T00:25:44;3.65;;;2.97;;
49183;SDS011;35021;49.214;12.270;2023-03-16T00:28:11;3.72;;;3.00;;
49183;SDS011;35021;49.214;12.270;2023-03-16T00:30:39;3.53;;;2.95;;
49183;SDS011;35021;49.214;12.270;2023-03-16T00:33:06;4.65;;;3.20;;
49183;SDS011;35021;49.214;12.270;2023-03-16T00:35:33;4.40;;;3.42;;
49183;SDS011;35021;49.214;12.270;2023-03-16T00:38:00;4.65;;;3.28;;
49183;SDS011;35021;49.214;12.270;2023-03-16T00:40:27;4.63;;;3.50;;
49183;SDS011;35021;49.214;12.270;2023-03-16T00:42:55;4.65;;;3.40;;
49183;SDS011;35021;49.214;12.270;2023-03-16T00:45:22;4.32;;;3.40;;
49183;SDS011;35021;49.214;12.270;2023-03-16T00:47:48;3.30;;;3.00;;
49183;SDS011;35021;49.214;12.270;2023-03-16T00:50:15;3.92;;;3.13;;
49183;SDS011;35021;49.214;12.270;2023-03-16T00:52:42;3.63;;;3.20;;
49183;SDS011;35021;49.214;12.270;2023-03-16T00:55:09;3.53;;;3.13;;
49183;SDS011;35021;49.214;12.270;2023-03-16T00:57:36;4.10;;;3.70;;
49183;SDS011;35021;49.214;12.270;2023-03-16T01:00:03;4.38;;;3.97;;
49183;SDS011;35021;49.214;12.270;2023-03-16T01:02:39;4.30;;;3.78;;
49183;SDS011;35021;49.214;12.270;2023-03-16T01:05:06;4.43;;;4.03;;
49183;SDS011;35021;49.214;12.270;2023-03-16T01:07:34;4.30;;;3.90;;
49183;SDS011;35021;49.214;12.270;2023-03-16T01:10:02;4.95;;;4.07;;
49183;SDS011;35021;49.214;12.270;2023-03-16T01:12:29;4.65;;;3.90;;
49183;SDS011;35021;49.214;12.270;2023-03-16T01:14:57;4.43;;;4.03;;
49183;SDS011;35021;49.214;12.270;2023-03-16T01:17:24;4.15;;;3.75;;
49183;SDS011;35021;49.214;12.270;2023-03-16T01:19:51;4.60;;;3.97;;
49183;SDS011;35021;49.214;12.270;2023-03-16T01:22:18;5.25;;;4.07;;
49183;SDS011;35021;49.214;12.270;2023-03-16T01:24:45;4.93;;;4.43;;
49183;SDS011;35021;49.214;12.270;2023-03-16T01:27:13;4.78;;;4.30;;
49183;SDS011;35021;49.214;12.270;2023-03-16T01:29:40;4.22;;;3.83;;
49183;SDS011;35021;49.214;12.270;2023-03-16T01:32:09;5.03;;;4.53;;
49183;SDS011;35021;49.214;12.270;2023-03-16T01:34:37;4.72;;;3.72;;
49183;SDS011;35021;49.214;12.270;2023-03-16T01:37:05;4.47;;;4.07;;
49183;SDS011;35021;49.214;12.270;2023-03-16T01:39:33;4.72;;;4.15;;
49183;SDS011;35021;49.214;12.270;2023-03-16T01:42:00;4.35;;;3.95;;
49183;SDS011;35021;49.214;12.270;2023-03-16T01:44:28;4.55;;;3.78;;
49183;SDS011;35021;49.214;12.270;2023-03-16T01:46:57;4.38;;;3.97;;
49183;SDS011;35021;49.214;12.270;2023-03-16T01:49:26;4.50;;;4.05;;
49183;SDS011;35021;49.214;12.270;2023-03-16T01:51:57;4.60;;;3.97;;
49183;SDS011;35021;49.214;12.270;2023-03-16T01:54:30;4.50;;;3.90;;
49183;SDS011;35021;49.214;12.270;2023-03-16T01:57:23;4.65;;;3.70;;
49183;SDS011;35021;49.214;12.270;2023-03-16T01:59:58;4.95;;;3.90;;
49183;SDS011;35021;49.214;12.270;2023-03-16T02:02:37;4.07;;;3.67;;
49183;SDS011;35021;49.214;12.270;2023-03-16T02:05:13;4.30;;;3.90;;
49183;SDS011;35021;49.214;12.270;2023-03-16T02:07:48;3.42;;;3.13;;
49183;SDS011;35021;49.214;12.270;2023-03-16T02:10:18;3.80;;;3.47;;
49183;SDS011;35021;49.214;12.270;2023-03-16T02:12:45;3.53;;;3.20;;
49183;SDS011;35021;49.214;12.270;2023-03-16T02:15:12;4.60;;;3.80;;
49183;SDS011;35021;49.214;12.270;2023-03-16T02:17:40;4.75;;;4.18;;
49183;SDS011;35021;49.214;12.270;2023-03-16T02:22:49;4.65;;;4.18;;
49183;SDS011;35021;49.214;12.270;2023-03-16T02:25:25;5.00;;;4.28;;
49183;SDS011;35021;49.214;12.270;2023-03-16T02:30:28;4.70;;;4.30;;
49183;SDS011;35021;49.214;12.270;2023-03-16T02:32:56;3.92;;;3.50;;
49183;SDS011;35021;49.214;12.270;2023-03-16T02:35:22;4.03;;;3.47;;
49183;SDS011;35021;49.214;12.270;2023-03-16T02:37:49;4.53;;;4.07;;
49183;SDS011;35021;49.214;12.270;2023-03-16T02:42:55;3.63;;;3.30;;
49183;SDS011;35021;49.214;12.270;2023-03-16T02:45:40;4.72;;;3.15;;
49183;SDS011;35021;49.214;12.270;2023-03-16T02:48:42;3.77;;;3.47;;
49183;SDS011;35021;49.214;12.270;2023-03-16T02:53:39;3.72;;;3.42;;
49183;SDS011;35021;49.214;12.270;2023-03-16T02:56:06;3.70;;;3.28;;
49183;SDS011;35021;49.214;12.270;2023-03-16T02:58:33;4.13;;;3.58;;
49183;SDS011;35021;49.214;12.270;2023-03-16T03:01:00;3.92;;;3.63;;
49183;SDS011;35021;49.214;12.270;2023-03-16T03:03:27;4.07;;;3.67;;
49183;SDS011;35021;49.214;12.270;2023-03-16T03:05:54;3.88;;;3.58;;
49183;SDS011;35021;49.214;12.270;2023-03-16T03:08:21;4.47;;;3.83;;
49183;SDS011;35021;49.214;12.270;2023-03-16T03:10:48;4.10;;;3.70;;
49183;SDS011;35021;49.214;12.270;2023-03-16T03:13:15;3.65;;;3.35;;
49183;SDS011;35021;49.214;12.270;2023-03-16T03:15:42;3.13;;;2.83;;
49183;SDS011;35021;49.214;12.270;2023-03-16T03:18:09;2.80;;;2.42;;
49183;SDS011;35021;49.214;12.270;2023-03-16T03:20:36;3.10;;;2.80;;
49183;SDS011;35021;49.214;12.270;2023-03-16T03:23:03;2.35;;;2.15;;
49183;SDS011;35021;49.214;12.270;2023-03-16T03:25:30;2.22;;;2.03;;
49183;SDS011;35021;49.214;12.270;2023-03-16T03:28:00;3.45;;;2.17;;
49183;SDS011;35021;49.214;12.270;2023-03-16T03:30:30;1.83;;;1.73;;
49183;SDS011;35021;49.214;12.270;2023-03-16T03:32:57;2.90;;;2.22;;
49183;SDS011;35021;49.214;12.270;2023-03-16T03:35:24;2.25;;;2.03;;
49183;SDS011;35021;49.214;12.270;2023-03-16T03:37:51;2.45;;;2.25;;
49183;SDS011;35021;49.214;12.270;2023-03-16T03:40:19;2.45;;;2.10;;
49183;SDS011;35021;49.214;12.270;2023-03-16T03:42:46;2.67;;;2.20;;
49183;SDS011;35021;49.214;12.270;2023-03-16T03:45:13;2.80;;;2.30;;
49183;SDS011;35021;49.214;12.270;2023-03-16T03:47:41;2.53;;;2.15;;
49183;SDS011;35021;49.214;12.270;2023-03-16T03:50:09;2.58;;;2.08;;
49183;SDS011;35021;49.214;12.270;2023-03-16T03:52:37;2.30;;;1.90;;
49183;SDS011;35021;49.214;12.270;2023-03-16T03:55:04;2.05;;;1.85;;
49183;SDS011;35021;49.214;12.270;2023-03-16T03:57:31;2.80;;;2.00;;
49183;SDS011;35021;49.214;12.270;2023-03-16T03:59:58;2.17;;;1.92;;
49183;SDS011;35021;49.214;12.270;2023-03-16T04:02:25;2.40;;;2.20;;
49183;SDS011;35021;49.214;12.270;2023-03-16T04:04:52;2.80;;;2.08;;
49183;SDS011;35021;49.214;12.270;2023-03-16T04:07:19;2.45;;;1.83;;
49183;SDS011;35021;49.214;12.270;2023-03-16T04:09:46;2.00;;;1.73;;
49183;SDS011;35021;49.214;12.270;2023-03-16T04:12:13;2.33;;;2.13;;
49183;SDS011;35021;49.214;12.270;2023-03-16T04:14:40;2.40;;;2.17;;
49183;SDS011;35021;49.214;12.270;2023-03-16T04:17:06;2.38;;;2.13;;
49183;SDS011;35021;49.214;12.270;2023-03-16T04:19:33;2.47;;;2.28;;
49183;SDS011;35021;49.214;12.270;2023-03-16T04:22:00;2.35;;;2.15;;
49183;SDS011;35021;49.214;12.270;2023-03-16T04:24:27;2.83;;;2.58;;
49183;SDS011;35021;49.214;12.270;2023-03-16T04:26:54;2.40;;;2.10;;
49183;SDS011;35021;49.214;12.270;2023-03-16T04:29:21;2.55;;;2.35;;
49183;SDS011;35021;49.214;12.270;2023-03-16T04:31:50;2.55;;;2.35;;
49183;SDS011;35021;49.214;12.270;2023-03-16T04:34:19;2.70;;;2.50;;
49183;SDS011;35021;49.214;12.270;2023-03-16T04:36:50;2.40;;;2.20;;
49183;SDS011;35021;49.214;12.270;2023-03-16T04:39:18;2.53;;;2.33;;
49183;SDS011;35021;49.214;12.270;2023-03-16T04:41:46;2.80;;;2.50;;
49183;SDS011;35021;49.214;12.270;2023-03-16T04:44:12;2.42;;;2.22;;
49183;SDS011;35021;49.214;12.270;2023-03-16T04:46:39;2.70;;;2.50;;
49183;SDS011;35021;49.214;12.270;2023-03-16T04:49:06;2.65;;;2.45;;
49183;SDS011;35021;49.214;12.270;2023-03-16T04:51:35;2.88;;;2.60;;
49183;SDS011;35021;49.214;12.270;2023-03-16T04:54:07;2.80;;;2.60;;
49183;SDS011;35021;49.214;12.270;2023-03-16T04:56:34;2.88;;;2.58;;
49183;SDS011;35021;49.214;12.270;2023-03-16T04:59:01;2.70;;;2.50;;
49183;SDS011;35021;49.214;12.270;2023-03-16T05:01:28;2.83;;;2.53;;
49183;SDS011;35021;49.214;12.270;2023-03-16T05:03:55;2.67;;;2.47;;
49183;SDS011;35021;49.214;12.270;2023-03-16T05:06:24;2.70;;;2.50;;
49183;SDS011;35021;49.214;12.270;2023-03-16T05:08:51;2.63;;;2.30;;
49183;SDS011;35021;49.214;12.270;2023-03-16T05:11:18;3.30;;;3.00;;
49183;SDS011;35021;49.214;12.270;2023-03-16T05:13:45;3.83;;;2.90;;
49183;SDS011;35021;49.214;12.270;2023-03-16T05:16:12;3.17;;;2.88;;
49183;SDS011;35021;49.214;12.270;2023-03-16T05:18:38;3.00;;;2.70;;
49183;SDS011;35021;49.214;12.270;2023-03-16T05:21:05;3.75;;;3.35;;
49183;SDS011;35021;49.214;12.270;2023-03-16T05:23:32;3.92;;;3.58;;
49183;SDS011;35021;49.214;12.270;2023-03-16T05:25:59;3.40;;;3.10;;
49183;SDS011;35021;49.214;12.270;2023-03-16T05:28:26;3.50;;;3.20;;
49183;SDS011;35021;49.214;12.270;2023-03-16T05:30:53;3.83;;;3.42;;
49183;SDS011;35021;49.214;12.270;2023-03-16T05:33:21;4.70;;;3.65;;
49183;SDS011;35021;49.214;12.270;2023-03-16T05:38:25;3.72;;;3.40;;
49183;SDS011;35021;49.214;12.270;2023-03-16T05:40:52;3.72;;;3.42;;
49183;SDS011;35021;49.214;12.270;2023-03-16T05:43:20;3.55;;;3.25;;
49183;SDS011;35021;49.214;12.270;2023-03-16T05:45:47;3.85;;;3.45;;
49183;SDS011;35021;49.214;12.270;2023-03-16T05:48:14;3.78;;;3.30;;
49183;SDS011;35021;49.214;12.270;2023-03-16T05:50:41;3.58;;;3.22;;
49183;SDS011;35021;49.214;12.270;2023-03-16T05:53:07;3.58;;;3.28;;
49183;SDS011;35021;49.214;12.270;2023-03-16T05:55:34;3.70;;;3.40;;
49183;SDS011;35021;49.214;12.270;2023-03-16T05:58:01;3.70;;;3.40;;
49183;SDS011;35021;49.214;12.270;2023-03-16T06:00:31;3.53;;;3.22;;
49183;SDS011;35021;49.214;12.270;2023-03-16T06:02:58;4.00;;;3.60;;
49183;SDS011;35021;49.214;12.270;2023-03-16T06:05:25;3.80;;;3.35;;
49183;SDS011;35021;49.214;12.270;2023-03-16T06:07:53;4.00;;;3.60;;
49183;SDS011;35021;49.214;12.270;2023-03-16T06:10:20;3.85;;;3.45;;
49183;SDS011;35021;49.214;12.270;2023-03-16T06:12:47;4.15;;;3.67;;
49183;SDS011;35021;49.214;12.270;2023-03-16T06:15:14;4.30;;;3.90;;
49183;SDS011;35021;49.214;12.270;2023-03-16T06:17:41;3.42;;;3.10;;
49183;SDS011;35021;49.214;12.270;2023-03-16T06:20:08;3.55;;;3.00;;
49183;SDS011;35021;49.214;12.270;2023-03-16T06:22:39;4.15;;;3.08;;
49183;SDS011;35021;49.214;12.270;2023-03-16T06:25:07;5.13;;;3.38;;
49183;SDS011;35021;49.214;12.270;2023-03-16T06:27:35;3.60;;;3.30;;
49183;SDS011;35021;49.214;12.270;2023-03-16T06:30:04;3.20;;;2.85;;
49183;SDS011;35021;49.214;12.270;2023-03-16T06:32:32;3.35;;;3.00;;
49183;SDS011;35021;49.214;12.270;2023-03-16T06:34:59;2.72;;;2.50;;
49183;SDS011;35021;49.214;12.270;2023-03-16T06:37:28;2.92;;;2.63;;
49183;SDS011;35021;49.214;12.270;2023-03-16T06:39:57;2.88;;;2.67;;
49183;SDS011;35021;49.214;12.270;2023-03-16T06:42:24;3.15;;;2.90;;
49183;SDS011;35021;49.214;12.270;2023-03-16T06:44:51;3.78;;;3.47;;
49183;SDS011;35021;49.214;12.270;2023-03-16T06:47:18;4.35;;;3.50;;
49183;SDS011;35021;49.214;12.270;2023-03-16T06:49:45;3.75;;;3.30;;
49183;SDS011;35021;49.214;12.270;2023-03-16T06:52:12;3.65;;;3.35;;
49183;SDS011;35021;49.214;12.270;2023-03-16T06:54:40;3.20;;;2.90;;
49183;SDS011;35021;49.214;12.270;2023-03-16T06:57:07;3.42;;;3.13;;
49183;SDS011;35021;49.214;12.270;2023-03-16T06:59:34;3.33;;;3.03;;
49183;SDS011;35021;49.214;12.270;2023-03-16T07:02:01;3.15;;;2.85;;
49183;SDS011;35021;49.214;12.270;2023-03-16T07:04:27;3.30;;;2.70;;
49183;SDS011;35021;49.214;12.270;2023-03-16T07:06:54;3.15;;;2.85;;
49183;SDS011;35021;49.214;12.270;2023-03-16T07:09:21;2.85;;;2.53;;
49183;SDS011;35021;49.214;12.270;2023-03-16T07:11:48;2.70;;;2.50;;
49183;SDS011;35021;49.214;12.270;2023-03-16T07:14:16;3.20;;;2.60;;
49183;SDS011;35021;49.214;12.270;2023-03-16T07:16:45;2.60;;;2.13;;
49183;SDS011;35021;49.214;12.270;2023-03-16T07:19:11;3.00;;;2.70;;
49183;SDS011;35021;49.214;12.270;2023-03-16T07:21:38;2.92;;;2.60;;
49183;SDS011;35021;49.214;12.270;2023-03-16T07:24:06;2.70;;;2.30;;
49183;SDS011;35021;49.214;12.270;2023-03-16T07:26:34;3.17;;;2.20;;
49183;SDS011;35021;49.214;12.270;2023-03-16T07:29:01;2.90;;;2.60;;
49183;SDS011;35021;49.214;12.270;2023-03-16T07:31:31;2.95;;;2.50;;
49183;SDS011;35021;49.214;12.270;2023-03-16T07:34:00;2.40;;;2.20;;
49183;SDS011;35021;49.214;12.270;2023-03-16T07:36:28;2.95;;;2.28;;
49183;SDS011;35021;49.214;12.270;2023-03-16T07:38:55;2.60;;;2.40;;
49183;SDS011;35021;49.214;12.270;2023-03-16T07:41:22;3.03;;;2.50;;
49183;SDS011;35021;49.214;12.270;2023-03-16T07:43:50;2.63;;;2.40;;
49183;SDS011;35021;49.214;12.270;2023-03-16T07:46:18;2.83;;;2.22;;
49183;SDS011;35021;49.214;12.270;2023-03-16T07:48:45;3.22;;;2.47;;
49183;SDS011;35021;49.214;12.270;2023-03-16T07:51:13;2.63;;;2.10;;
49183;SDS011;35021;49.214;12.270;2023-03-16T07:53:40;2.50;;;1.90;;
49183;SDS011;35021;49.214;12.270;2023-03-16T07:56:07;2.00;;;1.80;;
49183;SDS011;35021;49.214;12.270;2023-03-16T07:58:34;3.08;;;1.88;;
49183;SDS011;35021;49.214;12.270;2023-03-16T08:01:01;2.78;;;2.00;;
49183;SDS011;35021;49.214;12.270;2023-03-16T08:03:28;2.42;;;2.05;;
49183;SDS011;35021;49.214;12.270;2023-03-16T08:05:57;2.72;;;1.88;;
49183;SDS011;35021;49.214;12.270;2023-03-16T08:08:24;2.45;;;1.92;;
49183;SDS011;35021;49.214;12.270;2023-03-16T08:10:51;2.65;;;1.85;;
49183;SDS011;35021;49.214;12.270;2023-03-16T08:13:21;2.10;;;1.90;;
49183;SDS011;35021;49.214;12.270;2023-03-16T08:15:49;2.35;;;1.95;;
49183;SDS011;35021;49.214;12.270;2023-03-16T08:18:24;3.35;;;1.95;;
49183;SDS011;35021;49.214;12.270;2023-03-16T08:20:52;2.10;;;1.90;;
49183;SDS011;35021;49.214;12.270;2023-03-16T08:23:20;2.35;;;1.70;;
49183;SDS011;35021;49.214;12.270;2023-03-16T08:25:52;2.28;;;1.92;;
49183;SDS011;35021;49.214;12.270;2023-03-16T08:28:20;1.90;;;1.70;;
49183;SDS011;35021;49.214;12.270;2023-03-16T08:30:48;2.00;;;1.60;;
49183;SDS011;35021;49.214;12.270;2023-03-16T08:33:16;1.75;;;1.50;;
49183;SDS011;35021;49.214;12.270;2023-03-16T08:35:43;1.83;;;1.63;;
49183;SDS011;35021;49.214;12.270;2023-03-16T08:38:10;2.60;;;1.70;;
49183;SDS011;35021;49.214;12.270;2023-03-16T08:40:39;2.25;;;1.65;;
49183;SDS011;35021;49.214;12.270;2023-03-16T08:43:14;1.70;;;1.30;;
49183;SDS011;35021;49.214;12.270;2023-03-16T08:45:45;1.60;;;1.50;;
49183;SDS011;35021;49.214;12.270;2023-03-16T08:48:13;1.90;;;1.58;;
49183;SDS011;35021;49.214;12.270;2023-03-16T08:50:40;4.10;;;1.90;;
49183;SDS011;35021;49.214;12.270;2023-03-16T08:53:09;1.98;;;1.77;;
49183;SDS011;35021;49.214;12.270;2023-03-16T08:55:39;1.70;;;1.38;;
49183;SDS011;35021;49.214;12.270;2023-03-16T08:58:09;2.00;;;1.67;;
49183;SDS011;35021;49.214;12.270;2023-03-16T09:00:38;1.52;;;1.40;;
49183;SDS011;35021;49.214;12.270;2023-03-16T09:03:05;1.80;;;1.52;;
49183;SDS011;35021;49.214;12.270;2023-03-16T09:05:32;1.80;;;1.60;;
49183;SDS011;35021;49.214;12.270;2023-03-16T09:07:59;3.30;;;1.60;;
49183;SDS011;35021;49.214;12.270;2023-03-16T09:10:27;1.90;;;1.50;;
49183;SDS011;35021;49.214;12.270;2023-03-16T09:12:54;2.33;;;1.50;;
49183;SDS011;35021;49.214;12.270;2023-03-16T09:15:22;1.67;;;1.48;;
49183;SDS011;35021;49.214;12.270;2023-03-16T09:17:49;1.80;;;1.40;;
49183;SDS011;35021;49.214;12.270;2023-03-16T09:20:16;2.30;;;1.50;;
49183;SDS011;35021;49.214;12.270;2023-03-16T09:22:55;1.63;;;1.45;;
49183;SDS011;35021;49.214;12.270;2023-03-16T09:25:23;3.08;;;1.77;;
49183;SDS011;35021;49.214;12.270;2023-03-16T09:27:51;2.33;;;1.50;;
49183;SDS011;35021;49.214;12.270;2023-03-16T09:30:19;2.13;;;1.42;;
49183;SDS011;35021;49.214;12.270;2023-03-16T09:32:46;1.70;;;1.30;;
49183;SDS011;35021;49.214;12.270;2023-03-16T09:35:14;2.38;;;1.50;;
49183;SDS011;35021;49.214;12.270;2023-03-16T09:37:41;2.13;;;1.50;;
49183;SDS011;35021;49.214;12.270;2023-03-16T09:40:20;2.10;;;1.60;;
49183;SDS011;35021;49.214;12.270;2023-03-16T09:48:03;1.60;;;1.30;;
49183;SDS011;35021;49.214;12.270;2023-03-16T09:50:35;1.90;;;1.45;;
49183;SDS011;35021;49.214;12.270;2023-03-16T09:53:24;3.03;;;1.50;;
49183;SDS011;35021;49.214;12.270;2023-03-16T09:55:59;2.00;;;1.50;;
49183;SDS011;35021;49.214;12.270;2023-03-16T09:58:28;2.10;;;1.67;;
49183;SDS011;35021;49.214;12.270;2023-03-16T10:06:30;2.60;;;1.55;;
49183;SDS011;35021;49.214;12.270;2023-03-16T10:09:06;2.33;;;1.60;;
49183;SDS011;35021;49.214;12.270;2023-03-16T10:11:52;1.70;;;1.50;;
49183;SDS011;35021;49.214;12.270;2023-03-16T10:17:06;1.90;;;1.40;;
49183;SDS011;35021;49.214;12.270;2023-03-16T10:19:48;2.05;;;1.15;;
49183;SDS011;35021;49.214;12.270;2023-03-16T10:22:21;1.48;;;1.30;;
49183;SDS011;35021;49.214;12.270;2023-03-16T10:24:54;1.92;;;1.38;;
49183;SDS011;35021;49.214;12.270;2023-03-16T10:27:33;2.10;;;1.30;;
49183;SDS011;35021;49.214;12.270;2023-03-16T10:32:47;3.10;;;1.73;;
49183;SDS011;35021;49.214;12.270;2023-03-16T10:38:52;1.40;;;1.10;;
49183;SDS011;35021;49.214;12.270;2023-03-16T10:44:00;1.90;;;1.13;;
49183;SDS011;35021;49.214;12.270;2023-03-16T10:46:37;1.73;;;0.90;;
49183;SDS011;35021;49.214;12.270;2023-03-16T10:49:18;2.83;;;1.00;;
49183;SDS011;35021;49.214;12.270;2023-03-16T10:51:51;2.05;;;0.98;;
49183;SDS011;35021;49.214;12.270;2023-03-16T10:54:32;1.80;;;1.00;;
49183;SDS011;35021;49.214;12.270;2023-03-16T10:57:01;1.95;;;1.10;;
49183;SDS011;35021;49.214;12.270;2023-03-16T10:59:39;1.52;;;0.93;;
49183;SDS011;35021;49.214;12.270;2023-03-16T11:02:16;2.10;;;1.10;;
49183;SDS011;35021;49.214;12.270;2023-03-16T11:04:45;1.38;;;0.90;;
49183;SDS011;35021;49.214;12.270;2023-03-16T11:07:16;1.63;;;0.95;;
49183;SDS011;35021;49.214;12.270;2023-03-16T11:09:49;1.38;;;0.80;;
49183;SDS011;35021;49.214;12.270;2023-03-16T11:12:25;1.20;;;0.60;;
49183;SDS011;35021;49.214;12.270;2023-03-16T11:14:52;1.63;;;0.90;;
49183;SDS011;35021;49.214;12.270;2023-03-16T11:20:17;0.93;;;0.75;;
49183;SDS011;35021;49.214;12.270;2023-03-16T11:22:48;1.20;;;0.70;;
49183;SDS011;35021;49.214;12.270;2023-03-16T11:33:14;1.52;;;0.70;;
49183;SDS011;35021;49.214;12.270;2023-03-16T11:35:51;1.27;;;0.70;;
49183;SDS011;35021;49.214;12.270;2023-03-16T11:41:08;1.08;;;0.75;;
49183;SDS011;35021;49.214;12.270;2023-03-16T11:46:21;1.88;;;0.70;;
49183;SDS011;35021;49.214;12.270;2023-03-16T12:00:02;1.00;;;0.70;;
49183;SDS011;35021;49.214;12.270;2023-03-16T12:03:03;1.23;;;0.82;;
49183;SDS011;35021;49.214;12.270;2023-03-16T12:08:48;1.73;;;1.00;;
49183;SDS011;35021;49.214;12.270;2023-03-16T12:11:04;1.60;;;0.90;;
49183;SDS011;35021;49.214;12.270;2023-03-16T12:14:13;1.58;;;0.90;;
49183;SDS011;35021;49.214;12.270;2023-03-16T12:16:53;1.13;;;0.90;;
49183;SDS011;35021;49.214;12.270;2023-03-16T12:22:21;4.57;;;1.40;;
49183;SDS011;35021;49.214;12.270;2023-03-16T12:24:59;2.03;;;0.82;;
49183;SDS011;35021;49.214;12.270;2023-03-16T12:27:35;1.60;;;1.08;;
49183;SDS011;35021;49.214;12.270;2023-03-16T12:32:40;1.27;;;0.95;;
49183;SDS011;35021;49.214;12.270;2023-03-16T12:37:53;1.60;;;0.90;;
49183;SDS011;35021;49.214;12.270;2023-03-16T12:43:06;1.88;;;0.90;;
49183;SDS011;35021;49.214;12.270;2023-03-16T12:50:59;2.08;;;1.05;;
49183;SDS011;35021;49.214;12.270;2023-03-16T12:53:42;1.75;;;1.08;;
49183;SDS011;35021;49.214;12.270;2023-03-16T12:56:16;1.40;;;0.85;;
49183;SDS011;35021;49.214;12.270;2023-03-16T12:58:49;1.80;;;1.15;;
49183;SDS011;35021;49.214;12.270;2023-03-16T13:01:23;1.30;;;0.90;;
49183;SDS011;35021;49.214;12.270;2023-03-16T13:04:10;2.05;;;0.70;;
49183;SDS011;35021;49.214;12.270;2023-03-16T13:06:47;2.15;;;1.10;;
49183;SDS011;35021;49.214;12.270;2023-03-16T13:09:18;1.30;;;0.95;;
49183;SDS011;35021;49.214;12.270;2023-03-16T13:11:49;2.13;;;1.00;;
49183;SDS011;35021;49.214;12.270;2023-03-16T13:14:29;1.30;;;0.80;;
49183;SDS011;35021;49.214;12.270;2023-03-16T13:17:04;1.40;;;0.80;;
49183;SDS011;35021;49.214;12.270;2023-03-16T13:23:07;1.25;;;0.98;;
49183;SDS011;35021;49.214;12.270;2023-03-16T13:25:44;1.75;;;1.02;;
49183;SDS011;35021;49.214;12.270;2023-03-16T13:28:25;1.52;;;0.80;;
49183;SDS011;35021;49.214;12.270;2023-03-16T13:30:55;1.63;;;0.65;;
49183;SDS011;35021;49.214;12.270;2023-03-16T13:33:23;1.27;;;0.80;;
49183;SDS011;35021;49.214;12.270;2023-03-16T13:35:53;0.90;;;0.60;;
49183;SDS011;35021;49.214;12.270;2023-03-16T13:38:23;1.33;;;0.80;;
49183;SDS011;35021;49.214;12.270;2023-03-16T13:40:54;1.00;;;0.68;;
49183;SDS011;35021;49.214;12.270;2023-03-16T13:43:24;1.73;;;0.80;;
49183;SDS011;35021;49.214;12.270;2023-03-16T13:45:57;1.27;;;0.68;;
49183;SDS011;35021;49.214;12.270;2023-03-16T13:48:24;0.55;;;0.50;;
49183;SDS011;35021;49.214;12.270;2023-03-16T13:50:52;1.23;;;0.85;;
49183;SDS011;35021;49.214;12.270;2023-03-16T13:53:29;1.08;;;0.70;;
49183;SDS011;35021;49.214;12.270;2023-03-16T13:55:58;0.60;;;0.50;;
49183;SDS011;35021;49.214;12.270;2023-03-16T13:58:29;0.98;;;0.75;;
49183;SDS011;35021;49.214;12.270;2023-03-16T14:01:01;0.73;;;0.57;;
49183;SDS011;35021;49.214;12.270;2023-03-16T14:03:35;1.23;;;0.70;;
49183;SDS011;35021;49.214;12.270;2023-03-16T14:06:04;1.05;;;0.75;;
49183;SDS011;35021;49.214;12.270;2023-03-16T14:08:35;0.90;;;0.60;;
49183;SDS011;35021;49.214;12.270;2023-03-16T14:11:02;2.42;;;0.80;;
49183;SDS011;35021;49.214;12.270;2023-03-16T14:16:02;2.15;;;0.88;;
49183;SDS011;35021;49.214;12.270;2023-03-16T14:18:43;1.75;;;0.50;;
49183;SDS011;35021;49.214;12.270;2023-03-16T14:21:13;1.42;;;0.90;;
49183;SDS011;35021;49.214;12.270;2023-03-16T14:23:44;0.80;;;0.60;;
49183;SDS011;35021;49.214;12.270;2023-03-16T14:29:04;0.73;;;0.73;;
49183;SDS011;35021;49.214;12.270;2023-03-16T14:31:40;1.20;;;0.60;;
49183;SDS011;35021;49.214;12.270;2023-03-16T14:39:41;1.02;;;0.68;;
49183;SDS011;35021;49.214;12.270;2023-03-16T14:42:12;0.90;;;0.60;;
49183;SDS011;35021;49.214;12.270;2023-03-16T14:44:50;1.05;;;0.70;;
49183;SDS011;35021;49.214;12.270;2023-03-16T14:47:21;1.95;;;0.82;;
49183;SDS011;35021;49.214;12.270;2023-03-16T14:49:51;1.75;;;0.70;;
49183;SDS011;35021;49.214;12.270;2023-03-16T14:52:23;0.77;;;0.50;;
49183;SDS011;35021;49.214;12.270;2023-03-16T14:54:57;0.85;;;0.57;;
49183;SDS011;35021;49.214;12.270;2023-03-16T14:57:24;0.80;;;0.55;;
49183;SDS011;35021;49.214;12.270;2023-03-16T14:59:52;2.22;;;0.57;;
49183;SDS011;35021;49.214;12.270;2023-03-16T15:04:50;2.38;;;0.80;;
49183;SDS011;35021;49.214;12.270;2023-03-16T15:09:58;1.65;;;1.00;;
49183;SDS011;35021;49.214;12.270;2023-03-16T15:12:32;1.10;;;0.70;;
49183;SDS011;35021;49.214;12.270;2023-03-16T15:15:21;3.53;;;0.70;;
49183;SDS011;35021;49.214;12.270;2023-03-16T15:17:49;0.98;;;0.70;;
49183;SDS011;35021;49.214;12.270;2023-03-16T15:20:38;0.73;;;0.70;;
49183;SDS011;35021;49.214;12.270;2023-03-16T15:23:12;1.58;;;0.80;;
49183;SDS011;35021;49.214;12.270;2023-03-16T15:25:42;2.45;;;0.90;;
49183;SDS011;35021;49.214;12.270;2023-03-16T15:30:47;0.82;;;0.60;;
49183;SDS011;35021;49.214;12.270;2023-03-16T15:33:15;0.82;;;0.52;;
49183;SDS011;35021;49.214;12.270;2023-03-16T15:35:43;1.05;;;0.70;;
49183;SDS011;35021;49.214;12.270;2023-03-16T15:38:15;2.15;;;0.73;;
49183;SDS011;35021;49.214;12.270;2023-03-16T15:40:46;0.70;;;0.60;;
49183;SDS011;35021;49.214;12.270;2023-03-16T15:43:17;1.80;;;0.80;;
49183;SDS011;35021;49.214;12.270;2023-03-16T15:45:46;0.98;;;0.77;;
49183;SDS011;35021;49.214;12.270;2023-03-16T15:48:13;1.95;;;1.00;;
49183;SDS011;35021;49.214;12.270;2023-03-16T15:50:43;1.25;;;0.68;;
49183;SDS011;35021;49.214;12.270;2023-03-16T15:53:39;1.38;;;0.70;;
49183;SDS011;35021;49.214;12.270;2023-03-16T15:56:16;2.03;;;0.80;;
49183;SDS011;35021;49.214;12.270;2023-03-16T15:58:47;0.98;;;0.82;;
49183;SDS011;35021;49.214;12.270;2023-03-16T16:01:24;1.42;;;0.80;;
49183;SDS011;35021;49.214;12.270;2023-03-16T16:03:53;1.70;;;1.02;;
49183;SDS011;35021;49.214;12.270;2023-03-16T16:06:21;1.52;;;0.90;;
49183;SDS011;35021;49.214;12.270;2023-03-16T16:08:49;1.50;;;0.90;;
49183;SDS011;35021;49.214;12.270;2023-03-16T16:11:17;1.35;;;0.90;;
49183;SDS011;35021;49.214;12.270;2023-03-16T16:13:48;2.17;;;0.90;;
49183;SDS011;35021;49.214;12.270;2023-03-16T16:16:17;1.20;;;0.77;;
49183;SDS011;35021;49.214;12.270;2023-03-16T16:18:45;1.90;;;0.98;;
49183;SDS011;35021;49.214;12.270;2023-03-16T16:21:31;1.42;;;0.90;;
49183;SDS011;35021;49.214;12.270;2023-03-16T16:24:00;1.10;;;0.90;;
49183;SDS011;35021;49.214;12.270;2023-03-16T16:26:32;1.45;;;0.95;;
49183;SDS011;35021;49.214;12.270;2023-03-16T16:29:21;1.13;;;1.00;;
49183;SDS011;35021;49.214;12.270;2023-03-16T16:31:50;2.05;;;1.00;;
49183;SDS011;35021;49.214;12.270;2023-03-16T16:34:18;1.80;;;1.00;;